Time;durP1;ratioP1;P1;durP2;ratioP2;P2;SDS_P1;SDS_P2;PMS_P1;PMS_P2;Temp;Humidity;BMP_temperature;BMP_pressure;BME280_temperature;BME280_humidity;BME280_pressure;Samples;Min_cycle;Max_cycle;Signal;HPM_P1;HPM_P2
2022/01/17 00:01:06;;;;;;;25.30;15.32;;;3.90;99.90;;;;;;5091022;28;20024;-54
2022/01/17 00:03:32;;;;;;;26.83;15.40;;;3.90;99.90;;;;;;5073509;28;20400;-53
2022/01/17 00:05:58;;;;;;;26.42;14.93;;;3.90;99.90;;;;;;5084149;28;20050;-48
2022/01/17 00:08:24;;;;;;;24.10;14.68;;;3.90;99.90;;;;;;5071396;28;20040;-42
2022/01/17 00:10:49;;;;;;;22.98;14.25;;;3.90;99.90;;;;;;5071356;28;20476;-44
2022/01/17 00:13:24;;;;;;;23.65;14.50;;;3.90;99.90;;;;;;5071608;28;20024;-46
2022/01/17 00:15:55;;;;;;;22.95;13.25;;;4.00;99.90;;;;;;5071765;28;20020;-48
2022/01/17 00:20:49;;;;;;;24.48;15.02;;;4.00;99.90;;;;;;5070946;28;20028;-49
2022/01/17 00:23:16;;;;;;;24.20;14.80;;;3.90;99.90;;;;;;5071372;28;20028;-50
2022/01/17 00:25:42;;;;;;;26.35;16.70;;;3.90;99.90;;;;;;5071606;28;20104;-48
2022/01/17 00:28:08;;;;;;;27.73;17.13;;;4.00;99.90;;;;;;5071405;28;20059;-49
2022/01/17 00:30:33;;;;;;;23.40;15.30;;;4.00;99.90;;;;;;5070955;28;20519;-48
2022/01/17 00:32:59;;;;;;;27.77;15.70;;;4.00;99.90;;;;;;5071245;28;20116;-49
2022/01/17 00:35:25;;;;;;;27.75;17.20;;;4.00;99.90;;;;;;5071311;28;20051;-46
2022/01/17 00:37:52;;;;;;;26.15;15.98;;;3.90;99.90;;;;;;5071358;28;20028;-40
2022/01/17 00:40:18;;;;;;;23.70;14.82;;;3.90;99.90;;;;;;5071091;28;20024;-51
2022/01/17 00:42:44;;;;;;;29.00;17.52;;;4.00;99.90;;;;;;5071146;28;20016;-47
2022/01/17 00:45:13;;;;;;;26.23;17.40;;;4.00;99.90;;;;;;5071303;28;20032;-45
2022/01/17 00:47:39;;;;;;;26.38;16.60;;;4.00;99.90;;;;;;5071125;28;20021;-53
2022/01/17 00:50:05;;;;;;;27.88;16.83;;;4.00;99.90;;;;;;5070837;28;20190;-46
2022/01/17 00:52:31;;;;;;;27.55;17.52;;;4.00;99.90;;;;;;5071107;28;20079;-49
2022/01/17 00:54:56;;;;;;;25.45;14.57;;;4.00;99.90;;;;;;5071160;28;20060;-49
2022/01/17 00:57:22;;;;;;;27.85;15.48;;;4.10;99.90;;;;;;5071037;28;20056;-47
2022/01/17 00:59:48;;;;;;;25.75;17.17;;;4.10;99.90;;;;;;5071122;28;20380;-42
2022/01/17 01:02:13;;;;;;;28.35;15.90;;;4.00;99.90;;;;;;5071024;28;20023;-47
2022/01/17 01:04:39;;;;;;;29.83;17.58;;;4.00;99.90;;;;;;5070983;28;20043;-48
2022/01/17 01:07:04;;;;;;;27.77;15.88;;;4.00;99.90;;;;;;5071067;28;20020;-47
2022/01/17 01:09:36;;;;;;;26.67;15.50;;;4.00;99.90;;;;;;5070792;28;20105;-47
2022/01/17 01:12:02;;;;;;;27.70;16.08;;;3.90;99.90;;;;;;5071040;28;20048;-43
2022/01/17 01:14:28;;;;;;;27.45;16.23;;;4.00;99.90;;;;;;5055462;28;20052;-48
2022/01/17 01:16:56;;;;;;;28.58;17.02;;;3.90;99.90;;;;;;5074779;28;20028;-47
2022/01/17 01:27:38;;;;;;;27.65;16.88;;;3.90;99.90;;;;;;5075050;28;20020;-51
2022/01/17 01:27:54;;;;;;;30.60;17.40;;;3.90;99.90;;;;;;5074740;28;20035;-47
2022/01/17 01:30:22;;;;;;;31.30;18.35;;;3.80;99.90;;;;;;5074329;28;20114;-46
2022/01/17 01:32:53;;;;;;;30.60;18.35;;;3.80;99.90;;;;;;5074469;28;20656;-45
2022/01/17 01:35:22;;;;;;;34.83;17.48;;;3.80;99.90;;;;;;5074634;28;20020;-47
2022/01/17 01:37:49;;;;;;;30.80;17.92;;;3.90;99.90;;;;;;5074694;28;20016;-47
2022/01/17 01:40:17;;;;;;;29.30;16.85;;;3.90;99.90;;;;;;5074112;28;20032;-48
2022/01/17 01:42:44;;;;;;;26.40;16.73;;;4.00;99.90;;;;;;5074337;28;20013;-47
2022/01/17 01:45:12;;;;;;;33.17;16.80;;;4.10;99.90;;;;;;5074377;28;20051;-47
2022/01/17 01:47:38;;;;;;;25.30;15.57;;;4.10;99.90;;;;;;5074167;28;20020;-47
2022/01/17 01:50:06;;;;;;;24.42;15.93;;;4.10;99.90;;;;;;5073922;28;20056;-48
2022/01/17 01:52:31;;;;;;;28.27;15.23;;;4.10;99.90;;;;;;5074178;28;20056;-46
2022/01/17 01:54:57;;;;;;;25.70;14.82;;;4.00;99.90;;;;;;5074214;28;20028;-43
2022/01/17 01:57:22;;;;;;;26.48;15.68;;;4.00;99.90;;;;;;5074324;28;20056;-47
2022/01/17 01:59:48;;;;;;;24.60;15.43;;;4.00;99.90;;;;;;5055957;28;20103;-47
2022/01/17 02:02:13;;;;;;;27.50;14.85;;;4.00;99.90;;;;;;5056030;28;20025;-47
2022/01/17 02:04:39;;;;;;;23.50;16.00;;;4.00;99.90;;;;;;5073835;28;20044;-42
2022/01/17 02:07:05;;;;;;;22.63;14.40;;;4.10;99.90;;;;;;5074022;28;20541;-47
2022/01/17 02:09:33;;;;;;;23.80;14.07;;;4.10;99.90;;;;;;5073504;28;20028;-48
2022/01/17 02:11:58;;;;;;;26.48;14.40;;;4.00;99.90;;;;;;5073928;28;20166;-51
2022/01/17 02:14:24;;;;;;;23.33;13.95;;;4.00;99.90;;;;;;5073838;28;20107;-48
2022/01/17 02:16:51;;;;;;;22.63;13.63;;;4.10;99.90;;;;;;5073817;28;20032;-49
2022/01/17 02:19:22;;;;;;;24.08;14.48;;;4.10;99.90;;;;;;5073374;28;20021;-48
2022/01/17 02:21:48;;;;;;;20.15;13.27;;;4.10;99.90;;;;;;5073858;28;20118;-49
2022/01/17 02:24:16;;;;;;;22.27;12.73;;;4.10;99.90;;;;;;5072729;28;20025;-48
2022/01/17 02:26:43;;;;;;;22.25;13.25;;;4.10;99.90;;;;;;5072427;28;20043;-52
2022/01/17 02:29:09;;;;;;;21.40;12.70;;;4.10;99.90;;;;;;5073009;28;20028;-46
2022/01/17 02:31:35;;;;;;;17.85;11.35;;;4.00;99.90;;;;;;5073325;28;20027;-48
2022/01/17 02:34:03;;;;;;;17.80;11.38;;;4.00;99.90;;;;;;5073036;28;20025;-48
2022/01/17 02:36:29;;;;;;;21.60;12.23;;;4.00;99.90;;;;;;5073416;28;20476;-47
2022/01/17 02:38:54;;;;;;;19.58;11.55;;;3.90;99.90;;;;;;5073272;28;20020;-42
2022/01/17 02:41:20;;;;;;;19.27;11.73;;;3.90;99.90;;;;;;5072914;28;20028;-53
2022/01/17 02:43:47;;;;;;;18.33;12.40;;;3.90;99.90;;;;;;5073063;28;20020;-46
2022/01/17 02:48:39;;;;;;;16.40;10.30;;;3.90;99.90;;;;;;5073266;28;20048;-48
2022/01/17 02:51:06;;;;;;;17.77;11.07;;;3.90;99.90;;;;;;5072858;28;20095;-43
2022/01/17 02:53:32;;;;;;;21.50;11.48;;;4.00;99.90;;;;;;5073041;28;20511;-51
2022/01/17 02:56:02;;;;;;;16.05;10.13;;;4.00;99.90;;;;;;5055030;28;20064;-48
2022/01/17 02:58:33;;;;;;;16.95;10.65;;;4.00;99.90;;;;;;5073192;28;20045;-51
2022/01/17 03:01:00;;;;;;;16.77;11.07;;;4.00;99.90;;;;;;5072652;28;20100;-43
2022/01/17 03:05:58;;;;;;;16.83;10.50;;;4.00;99.90;;;;;;5129547;22;20054;-53
2022/01/17 03:08:27;;;;;;;16.25;11.48;;;4.00;99.90;;;;;;5095136;28;20023;-53
2022/01/17 03:10:54;;;;;;;18.02;9.45;;;4.00;99.90;;;;;;5094983;28;20020;-54
2022/01/17 03:13:25;;;;;;;20.65;12.35;;;3.90;99.90;;;;;;5094972;28;20540;-54
2022/01/17 03:15:57;;;;;;;16.48;10.25;;;3.90;99.90;;;;;;5113359;28;20399;-51
2022/01/17 03:18:24;;;;;;;17.10;10.95;;;3.80;99.90;;;;;;5113206;28;20012;-51
2022/01/17 03:20:50;;;;;;;18.83;10.70;;;3.80;99.90;;;;;;5112785;28;20027;-51
2022/01/17 03:23:16;;;;;;;16.77;10.60;;;3.80;99.90;;;;;;5112604;28;20570;-49
2022/01/17 03:25:42;;;;;;;19.33;10.20;;;3.70;99.90;;;;;;5094994;28;20387;-54
2022/01/17 03:28:09;;;;;;;19.30;9.75;;;3.70;99.90;;;;;;5094814;28;20023;-50
2022/01/17 03:30:35;;;;;;;16.80;10.68;;;3.70;99.90;;;;;;5094356;28;20023;-50
2022/01/17 03:33:03;;;;;;;17.33;10.27;;;3.80;99.90;;;;;;5112926;28;20030;-51
2022/01/17 03:35:28;;;;;;;16.75;11.32;;;3.80;99.90;;;;;;5112928;28;20112;-49
2022/01/17 03:37:54;;;;;;;17.75;10.75;;;3.70;99.90;;;;;;5112520;28;20054;-49
2022/01/17 03:40:19;;;;;;;20.45;11.65;;;3.70;99.90;;;;;;5112386;28;20027;-50
2022/01/17 03:42:45;;;;;;;19.65;10.75;;;3.80;99.90;;;;;;5112753;28;20028;-53
2022/01/17 03:45:11;;;;;;;16.80;11.05;;;3.70;99.90;;;;;;5112614;28;20023;-53
2022/01/17 03:47:39;;;;;;;18.38;11.00;;;3.80;99.90;;;;;;5112641;28;20104;-51
2022/01/17 03:50:08;;;;;;;17.90;10.43;;;3.80;99.90;;;;;;5112341;28;20398;-49
2022/01/17 03:52:33;;;;;;;18.38;10.95;;;3.80;99.90;;;;;;5112604;28;20498;-52
2022/01/17 03:54:59;;;;;;;21.15;10.20;;;3.90;99.90;;;;;;5112342;28;20073;-51
2022/01/17 03:57:25;;;;;;;19.90;10.98;;;4.00;99.90;;;;;;5112621;28;20030;-50
2022/01/17 03:59:50;;;;;;;16.25;10.35;;;4.00;99.90;;;;;;5112043;28;20028;-50
2022/01/17 04:02:16;;;;;;;15.48;9.98;;;3.90;99.90;;;;;;5112384;28;20523;-52
2022/01/17 04:04:42;;;;;;;16.65;9.88;;;3.90;99.90;;;;;;5112134;28;20040;-50
2022/01/17 04:07:07;;;;;;;17.42;10.48;;;3.80;99.90;;;;;;5112446;28;20030;-49
2022/01/17 04:09:33;;;;;;;16.95;10.95;;;3.90;99.90;;;;;;5111882;28;20020;-52
2022/01/17 04:11:58;;;;;;;15.90;9.73;;;3.80;99.90;;;;;;5094073;28;20031;-49
2022/01/17 04:14:24;;;;;;;19.95;10.60;;;3.90;99.90;;;;;;5112131;28;20494;-49
2022/01/17 04:16:49;;;;;;;15.55;9.77;;;3.90;99.90;;;;;;5112084;28;20024;-52
2022/01/17 04:19:18;;;;;;;14.00;8.90;;;4.00;99.90;;;;;;5111799;28;20510;-48
2022/01/17 04:21:46;;;;;;;22.17;11.07;;;4.00;99.90;;;;;;5112136;28;20540;-51
2022/01/17 04:24:11;;;;;;;14.73;9.90;;;4.00;99.90;;;;;;5111397;28;20451;-52
2022/01/17 04:26:37;;;;;;;14.05;9.73;;;4.00;99.90;;;;;;5112069;28;20084;-56
2022/01/17 04:29:03;;;;;;;16.05;9.98;;;4.00;99.90;;;;;;5111793;28;20530;-48
2022/01/17 04:31:28;;;;;;;13.85;10.02;;;3.90;99.90;;;;;;5111933;28;20085;-52
2022/01/17 04:33:54;;;;;;;15.10;9.05;;;4.00;99.90;;;;;;5111865;28;20028;-50
2022/01/17 04:36:20;;;;;;;13.80;9.18;;;4.00;99.90;;;;;;5093870;28;20024;-53
2022/01/17 04:38:46;;;;;;;13.85;9.27;;;3.90;99.90;;;;;;5112152;28;20027;-52
2022/01/17 04:41:15;;;;;;;13.90;9.50;;;4.00;99.90;;;;;;5111626;28;20039;-51
2022/01/17 04:46:09;;;;;;;14.45;9.15;;;4.10;99.90;;;;;;5112017;28;20168;-53
2022/01/17 04:48:36;;;;;;;15.02;9.70;;;4.10;99.90;;;;;;5113107;28;20098;-49
2022/01/17 04:51:02;;;;;;;15.77;9.77;;;4.00;99.90;;;;;;5115881;28;20124;-49
2022/01/17 04:53:29;;;;;;;15.13;9.80;;;4.10;99.90;;;;;;5116216;28;20034;-48
2022/01/17 04:55:55;;;;;;;16.65;10.57;;;4.10;99.90;;;;;;5115811;28;20031;-46
2022/01/17 04:58:21;;;;;;;14.23;9.93;;;4.10;99.90;;;;;;5115977;28;20063;-48
2022/01/17 05:00:47;;;;;;;13.43;8.65;;;4.10;99.90;;;;;;5115446;28;20106;-49
2022/01/17 05:03:14;;;;;;;13.48;9.25;;;4.10;99.90;;;;;;5115844;28;20019;-51
2022/01/17 05:05:40;;;;;;;13.85;8.95;;;4.10;99.90;;;;;;5115683;28;20039;-51
2022/01/17 05:08:05;;;;;;;13.88;8.52;;;4.00;99.90;;;;;;5115745;28;20043;-50
2022/01/17 05:10:31;;;;;;;12.13;8.30;;;4.00;99.90;;;;;;5115458;28;20027;-52
2022/01/17 05:12:57;;;;;;;15.25;9.50;;;4.00;99.90;;;;;;5115779;28;20032;-52
2022/01/17 05:15:33;;;;;;;10.45;8.07;;;3.90;99.90;;;;;;5097277;28;20094;-47
2022/01/17 05:18:24;;;;;;;13.35;7.97;;;3.90;99.90;;;;;;5115799;28;20012;-50
2022/01/17 05:20:47;;;;;;;16.45;9.10;;;3.90;99.90;;;;;;5115078;28;20050;-50
2022/01/17 05:23:13;;;;;;;12.65;8.30;;;3.90;99.90;;;;;;5116188;28;20015;-53
2022/01/17 05:25:38;;;;;;;13.18;8.07;;;3.90;99.90;;;;;;5116678;28;20067;-53
2022/01/17 05:28:04;;;;;;;13.18;8.35;;;4.00;99.90;;;;;;5116085;28;20055;-53
2022/01/17 05:30:30;;;;;;;12.23;7.93;;;4.00;99.90;;;;;;5115658;28;20510;-55
2022/01/17 05:32:58;;;;;;;11.60;7.78;;;4.00;99.90;;;;;;5116065;28;20039;-50
2022/01/17 05:35:24;;;;;;;15.25;9.45;;;3.90;99.90;;;;;;5115375;28;20118;-52
2022/01/17 05:37:49;;;;;;;11.07;7.63;;;3.90;99.90;;;;;;5115195;28;20061;-50
2022/01/17 05:40:17;;;;;;;17.83;7.63;;;4.00;99.90;;;;;;5114816;28;20042;-56
2022/01/17 05:42:43;;;;;;;11.55;7.22;;;4.00;99.90;;;;;;5115167;28;20019;-54
2022/01/17 05:45:09;;;;;;;10.80;8.00;;;4.00;99.90;;;;;;5096758;28;20030;-51
2022/01/17 05:47:35;;;;;;;12.30;7.90;;;4.00;99.90;;;;;;5115273;28;20028;-47
2022/01/17 05:50:03;;;;;;;13.95;8.10;;;4.10;99.90;;;;;;5116717;28;20031;-56
2022/01/17 05:52:30;;;;;;;10.27;6.82;;;4.00;99.90;;;;;;5117342;28;20043;-50
2022/01/17 05:54:56;;;;;;;10.88;6.95;;;4.10;99.90;;;;;;5117913;28;20031;-51
2022/01/17 05:57:21;;;;;;;13.55;7.72;;;4.10;99.90;;;;;;5115402;28;20016;-55
2022/01/17 05:59:47;;;;;;;11.27;7.25;;;4.20;99.90;;;;;;5114401;28;20107;-50
2022/01/17 06:02:12;;;;;;;10.43;7.10;;;4.20;99.90;;;;;;5096336;28;20052;-49
2022/01/17 06:04:38;;;;;;;9.93;7.18;;;4.10;99.90;;;;;;5114639;28;20028;-53
2022/01/17 06:07:05;;;;;;;9.95;7.00;;;4.00;99.90;;;;;;5114629;28;20027;-52
2022/01/17 06:09:31;;;;;;;11.20;7.75;;;3.90;99.90;;;;;;5114250;28;20035;-50
2022/01/17 06:11:57;;;;;;;11.38;7.22;;;3.90;99.90;;;;;;5114476;28;20026;-55
2022/01/17 06:14:23;;;;;;;10.02;7.10;;;3.90;99.90;;;;;;5096077;28;20126;-54
2022/01/17 06:16:49;;;;;;;11.23;7.00;;;3.90;99.90;;;;;;5114307;28;20027;-50
2022/01/17 06:19:15;;;;;;;10.00;6.90;;;3.90;99.90;;;;;;5113901;28;20024;-49
2022/01/17 06:21:41;;;;;;;11.20;7.70;;;4.00;99.90;;;;;;5114244;28;20393;-50
2022/01/17 06:24:09;;;;;;;11.45;7.55;;;4.00;99.90;;;;;;5113743;28;20176;-49
2022/01/17 06:26:39;;;;;;;8.48;6.68;;;3.90;99.90;;;;;;5114225;28;20047;-51
2022/01/17 06:29:06;;;;;;;9.50;6.85;;;4.00;99.90;;;;;;5095615;28;20114;-48
2022/01/17 06:31:32;;;;;;;12.43;7.45;;;4.00;99.90;;;;;;5113872;28;20015;-50
2022/01/17 06:33:57;;;;;;;11.05;7.43;;;4.00;99.90;;;;;;5113965;28;20091;-51
2022/01/17 06:36:23;;;;;;;9.27;6.45;;;4.00;99.90;;;;;;5113857;28;20024;-51
2022/01/17 06:38:49;;;;;;;11.75;7.15;;;4.00;99.90;;;;;;5114045;28;20487;-48
2022/01/17 06:41:16;;;;;;;12.05;7.57;;;4.10;99.90;;;;;;5113602;28;20047;-49
2022/01/17 06:43:42;;;;;;;13.40;8.45;;;4.10;99.90;;;;;;5113738;28;20028;-49
2022/01/17 06:46:08;;;;;;;11.38;7.43;;;4.10;99.90;;;;;;5113810;28;20055;-53
2022/01/17 06:48:33;;;;;;;12.55;8.15;;;4.10;99.90;;;;;;5113862;28;20511;-52
2022/01/17 06:50:59;;;;;;;11.27;7.32;;;4.10;99.90;;;;;;5113198;28;20030;-49
2022/01/17 06:53:27;;;;;;;11.65;7.57;;;4.10;99.90;;;;;;5095424;28;20024;-49
2022/01/17 06:55:55;;;;;;;11.95;7.72;;;4.10;99.90;;;;;;5113443;28;20034;-50
2022/01/17 06:58:21;;;;;;;10.95;7.20;;;4.10;99.90;;;;;;5113608;28;20019;-53
2022/01/17 07:00:47;;;;;;;11.05;7.82;;;4.00;99.90;;;;;;5113125;28;20072;-50
2022/01/17 07:03:14;;;;;;;10.55;7.53;;;4.10;99.90;;;;;;5113415;28;20024;-48
2022/01/17 07:05:39;;;;;;;11.48;7.72;;;4.10;99.90;;;;;;5113239;28;20035;-50
2022/01/17 07:08:05;;;;;;;10.07;6.90;;;4.10;99.90;;;;;;5113344;28;20173;-49
2022/01/17 07:10:31;;;;;;;10.98;7.55;;;4.00;99.90;;;;;;5112705;28;20094;-51
2022/01/17 07:12:56;;;;;;;10.73;7.53;;;4.00;99.90;;;;;;5094378;28;20421;-50
2022/01/17 07:15:22;;;;;;;12.20;7.80;;;4.00;99.90;;;;;;5113099;28;20028;-53
2022/01/17 07:17:47;;;;;;;12.07;7.95;;;4.10;99.90;;;;;;5113189;28;20030;-49
2022/01/17 07:20:13;;;;;;;14.70;9.10;;;4.10;99.90;;;;;;5112780;28;20032;-49
2022/01/17 07:22:39;;;;;;;11.43;7.45;;;4.10;99.90;;;;;;5112792;28;20028;-49
2022/01/17 07:25:05;;;;;;;14.55;9.32;;;4.10;99.90;;;;;;5094788;28;20459;-50
2022/01/17 07:27:31;;;;;;;13.80;9.02;;;4.10;99.90;;;;;;5094603;28;20512;-49
2022/01/17 07:29:57;;;;;;;16.65;9.18;;;4.20;99.90;;;;;;5112552;28;20028;-50
2022/01/17 07:32:23;;;;;;;18.67;11.02;;;4.10;99.90;;;;;;5112817;28;20020;-51
2022/01/17 07:34:48;;;;;;;13.82;9.75;;;4.10;99.90;;;;;;5112716;28;20031;-49
2022/01/17 07:37:14;;;;;;;18.10;10.82;;;4.00;99.90;;;;;;5112665;28;20087;-49
2022/01/17 07:39:40;;;;;;;18.65;10.40;;;4.00;99.90;;;;;;5112424;28;20020;-51
2022/01/17 07:42:06;;;;;;;19.45;10.40;;;3.90;99.90;;;;;;5112708;28;20035;-48
2022/01/17 07:44:33;;;;;;;20.67;11.30;;;3.90;99.90;;;;;;5094359;28;20455;-51
2022/01/17 07:47:01;;;;;;;17.00;10.27;;;3.90;99.90;;;;;;5112440;28;20030;-49
2022/01/17 07:49:27;;;;;;;19.70;11.75;;;3.90;99.90;;;;;;5112247;28;20372;-52
2022/01/17 07:52:03;;;;;;;19.55;11.55;;;3.90;99.90;;;;;;5112555;28;20024;-49
2022/01/17 07:54:31;;;;;;;16.67;10.35;;;3.80;99.90;;;;;;5094400;28;20491;-50
2022/01/17 07:56:58;;;;;;;21.40;12.32;;;3.80;99.90;;;;;;5112000;28;20036;-51
2022/01/17 07:59:25;;;;;;;20.83;11.20;;;3.80;99.90;;;;;;5112137;28;20011;-52
2022/01/17 08:01:50;;;;;;;18.50;11.32;;;3.90;99.90;;;;;;5112427;28;20047;-49
2022/01/17 08:04:16;;;;;;;23.42;12.35;;;3.90;99.90;;;;;;5112157;28;20124;-49
2022/01/17 08:06:41;;;;;;;19.77;11.30;;;3.80;99.90;;;;;;5112452;28;20031;-53
2022/01/17 08:09:20;;;;;;;20.33;11.77;;;3.90;99.90;;;;;;5111927;28;20023;-46
2022/01/17 08:11:46;;;;;;;23.27;13.00;;;3.80;99.90;;;;;;5082302;28;20032;-51
2022/01/17 08:14:12;;;;;;;22.77;13.35;;;3.90;99.90;;;;;;5111168;28;20029;-51
2022/01/17 08:16:38;;;;;;;19.80;11.48;;;3.90;99.90;;;;;;5112301;28;20027;-47
2022/01/17 08:19:03;;;;;;;18.30;10.65;;;3.90;99.90;;;;;;5110726;28;20448;-46
2022/01/17 08:21:29;;;;;;;16.17;10.35;;;3.80;99.90;;;;;;5110900;28;20433;-45
2022/01/17 08:23:55;;;;;;;20.67;11.88;;;3.90;99.90;;;;;;5110229;28;20540;-47
2022/01/17 08:26:21;;;;;;;17.50;10.82;;;4.00;99.90;;;;;;5105203;28;20078;-46
2022/01/17 08:28:48;;;;;;;17.85;10.40;;;4.10;99.90;;;;;;5093471;28;20103;-48
2022/01/17 08:31:14;;;;;;;15.70;9.52;;;4.10;99.90;;;;;;5091310;28;20073;-49
2022/01/17 08:33:39;;;;;;;16.15;9.95;;;4.20;99.90;;;;;;5087078;28;20032;-46
2022/01/17 08:36:07;;;;;;;20.75;11.90;;;4.10;99.90;;;;;;5103039;28;20395;-47
2022/01/17 08:38:33;;;;;;;16.63;10.20;;;4.20;99.90;;;;;;5107195;28;20465;-49
2022/01/17 08:40:59;;;;;;;17.80;10.93;;;4.30;99.90;;;;;;5111514;28;20011;-47
2022/01/17 08:43:25;;;;;;;14.60;9.65;;;4.30;99.90;;;;;;5112060;28;20027;-46
2022/01/17 08:45:51;;;;;;;17.58;10.35;;;4.30;99.90;;;;;;5100616;28;20154;-47
2022/01/17 08:48:17;;;;;;;14.48;8.68;;;4.40;99.90;;;;;;5073383;28;20064;-49
2022/01/17 08:50:46;;;;;;;14.40;9.65;;;4.40;99.90;;;;;;5104596;28;20859;-52
2022/01/17 08:53:13;;;;;;;13.95;9.30;;;4.40;99.90;;;;;;5111625;28;20115;-46
2022/01/17 08:55:40;;;;;;;13.20;8.93;;;4.40;99.90;;;;;;5111677;28;20059;-50
2022/01/17 08:58:06;;;;;;;12.77;8.45;;;4.50;99.90;;;;;;5111674;28;20514;-49
2022/01/17 09:00:32;;;;;;;14.52;7.95;;;4.50;99.90;;;;;;5110883;28;20491;-49
2022/01/17 09:03:01;;;;;;;10.45;7.47;;;4.70;99.90;;;;;;5093499;28;20038;-47
2022/01/17 09:05:27;;;;;;;9.55;6.85;;;4.80;99.90;;;;;;5117711;22;20055;-42
2022/01/17 09:07:52;;;;;;;8.65;7.05;;;4.90;99.90;;;;;;5074026;28;20091;-46
2022/01/17 09:10:18;;;;;;;11.23;7.15;;;5.00;99.90;;;;;;5090742;28;20024;-49
2022/01/17 09:12:44;;;;;;;11.00;6.20;;;5.00;99.90;;;;;;5092056;28;20028;-48
2022/01/17 09:15:10;;;;;;;10.85;7.28;;;5.00;99.90;;;;;;5103831;28;20039;-44
2022/01/17 09:17:36;;;;;;;9.15;7.07;;;5.10;99.90;;;;;;5112345;28;20015;-47
2022/01/17 09:20:04;;;;;;;11.15;6.97;;;5.10;99.90;;;;;;5112148;28;20020;-54
2022/01/17 09:22:29;;;;;;;9.93;6.53;;;5.10;99.90;;;;;;5094293;28;20465;-46
2022/01/17 09:24:55;;;;;;;10.93;6.82;;;5.20;99.90;;;;;;5112971;28;20035;-45
2022/01/17 09:27:21;;;;;;;12.70;7.10;;;5.20;99.90;;;;;;5112859;28;20035;-45
2022/01/17 09:29:47;;;;;;;11.52;7.18;;;5.20;99.90;;;;;;5094009;28;20362;-46
2022/01/17 09:32:14;;;;;;;10.50;6.45;;;5.20;99.90;;;;;;5112253;28;20093;-48
2022/01/17 09:34:41;;;;;;;11.70;7.10;;;5.20;99.90;;;;;;5113332;28;20502;-46
2022/01/17 09:37:08;;;;;;;9.57;6.22;;;5.30;99.90;;;;;;5115933;28;20077;-47
2022/01/17 09:39:35;;;;;;;11.63;6.68;;;5.30;99.90;;;;;;5115413;28;20043;-52
2022/01/17 09:42:01;;;;;;;7.95;6.57;;;5.40;99.90;;;;;;5115943;28;20019;-45
2022/01/17 09:44:26;;;;;;;9.20;6.85;;;5.40;99.90;;;;;;5115560;28;20040;-44
2022/01/17 09:46:55;;;;;;;10.27;6.55;;;5.50;99.90;;;;;;5115904;28;20032;-41
2022/01/17 09:49:24;;;;;;;9.43;6.45;;;5.50;99.90;;;;;;5115440;28;20028;-41
2022/01/17 09:54:21;;;;;;;12.30;6.80;;;5.60;99.90;;;;;;5115500;28;20507;-45
2022/01/17 09:56:50;;;;;;;8.45;5.97;;;5.60;99.90;;;;;;5115689;28;20039;-46
2022/01/17 09:59:16;;;;;;;10.07;6.80;;;5.60;99.90;;;;;;5114997;28;20019;-42
2022/01/17 10:01:42;;;;;;;7.80;5.63;;;5.60;99.90;;;;;;5115132;28;20418;-46
2022/01/17 10:04:09;;;;;;;9.50;5.63;;;5.70;99.90;;;;;;5115335;28;20036;-50
2022/01/17 10:06:36;;;;;;;9.05;6.10;;;5.70;99.90;;;;;;5115122;28;20020;-50
2022/01/17 10:09:08;;;;;;;10.55;6.75;;;5.70;99.90;;;;;;5115190;28;20047;-42
2022/01/17 10:11:34;;;;;;;9.90;6.60;;;5.70;99.90;;;;;;5114592;28;20024;-48
2022/01/17 10:13:59;;;;;;;10.07;6.68;;;5.70;99.90;;;;;;5114871;28;20020;-48
2022/01/17 10:16:26;;;;;;;10.23;6.05;;;5.70;99.90;;;;;;5096575;28;20027;-47
2022/01/17 10:19:04;;;;;;;8.13;6.00;;;5.80;99.90;;;;;;5114661;28;20024;-43
2022/01/17 10:21:31;;;;;;;9.32;5.50;;;5.80;99.90;;;;;;5114473;28;20031;-46
2022/01/17 10:35:07;;;;;;;8.98;6.35;;;5.90;99.90;;;;;;5110574;28;20061;-45
2022/01/17 10:37:32;;;;;;;9.40;6.80;;;5.90;99.90;;;;;;5093934;28;20046;-51
2022/01/17 10:40:01;;;;;;;10.25;6.53;;;5.90;99.90;;;;;;5106567;28;20023;-53
2022/01/17 10:42:29;;;;;;;9.90;5.80;;;5.90;99.90;;;;;;5110747;28;20019;-51
2022/01/17 10:45:08;;;;;;;9.70;6.50;;;6.00;99.90;;;;;;5112876;28;20023;-49
2022/01/17 10:47:37;;;;;;;14.07;5.60;;;6.00;99.90;;;;;;5112046;28;21512;-49
2022/01/17 10:50:48;;;;;;;7.88;5.90;;;5.90;99.90;;;;;;5105162;28;20050;-50
2022/01/17 10:53:19;;;;;;;7.55;6.05;;;6.00;99.90;;;;;;5040255;28;20028;-52
2022/01/17 10:55:52;;;;;;;11.63;6.55;;;5.90;99.90;;;;;;5100978;28;20119;-56
2022/01/17 10:58:26;;;;;;;7.88;6.13;;;6.00;99.90;;;;;;5093744;28;20012;-49
2022/01/17 11:01:16;;;;;;;14.82;6.93;;;6.10;99.90;;;;;;5093385;28;20434;-52
2022/01/17 11:03:44;;;;;;;9.57;5.90;;;6.10;99.90;;;;;;5086088;28;20024;-55
2022/01/17 11:06:13;;;;;;;8.00;5.40;;;6.20;99.90;;;;;;5083367;28;20513;-48
2022/01/17 11:08:41;;;;;;;7.28;5.38;;;6.10;99.90;;;;;;5113672;28;20044;-52
2022/01/17 11:11:09;;;;;;;12.18;6.05;;;6.20;99.90;;;;;;5112897;28;20043;-54
2022/01/17 11:13:38;;;;;;;7.30;5.15;;;6.20;99.90;;;;;;5113757;28;20115;-53
2022/01/17 11:16:11;;;;;;;8.48;5.30;;;6.20;99.90;;;;;;5113546;28;20047;-49
2022/01/17 11:18:40;;;;;;;11.13;5.97;;;6.30;99.90;;;;;;5113495;28;20031;-53
2022/01/17 11:21:13;;;;;;;7.35;5.60;;;6.30;99.90;;;;;;5113170;28;20016;-48
2022/01/17 11:23:41;;;;;;;7.93;6.45;;;6.40;99.90;;;;;;5109805;28;20536;-47
2022/01/17 11:26:07;;;;;;;8.10;5.20;;;6.40;99.90;;;;;;5105977;28;20046;-48
2022/01/17 11:28:34;;;;;;;6.00;5.40;;;6.40;99.90;;;;;;5113271;28;20019;-54
2022/01/17 11:31:04;;;;;;;6.75;5.28;;;6.40;99.90;;;;;;5113928;28;20035;-44
2022/01/17 11:33:29;;;;;;;8.90;5.95;;;6.40;99.90;;;;;;5108876;28;20026;-41
2022/01/17 11:35:55;;;;;;;7.18;5.47;;;6.50;99.90;;;;;;5113659;28;20027;-50
2022/01/17 11:38:31;;;;;;;6.90;5.22;;;6.50;99.90;;;;;;5107341;28;20021;-48
2022/01/17 11:40:59;;;;;;;6.85;4.65;;;6.50;99.90;;;;;;5107268;28;20449;-52
2022/01/17 11:43:33;;;;;;;7.43;5.07;;;6.50;99.90;;;;;;5113151;28;20012;-48
2022/01/17 11:46:20;;;;;;;7.27;4.63;;;6.60;99.90;;;;;;5113218;28;20019;-47
2022/01/17 11:49:02;;;;;;;6.30;4.82;;;6.60;99.90;;;;;;5112934;28;20035;-52
2022/01/17 11:51:44;;;;;;;8.98;5.88;;;6.60;99.90;;;;;;5113003;28;20583;-48
2022/01/17 11:54:14;;;;;;;7.90;5.50;;;6.70;99.90;;;;;;5112987;28;20388;-50
2022/01/17 11:56:51;;;;;;;8.80;5.13;;;6.70;99.90;;;;;;5093000;28;20048;-42
2022/01/17 11:59:42;;;;;;;6.15;5.13;;;6.80;99.90;;;;;;5091803;28;20023;-43
2022/01/17 12:02:24;;;;;;;6.20;4.60;;;6.80;99.90;;;;;;5104963;28;20100;-48
2022/01/17 12:05:08;;;;;;;8.48;4.65;;;6.90;99.90;;;;;;5112901;28;20068;-47
2022/01/17 12:07:54;;;;;;;8.27;5.20;;;6.90;99.90;;;;;;5112949;28;20027;-53
2022/01/17 12:10:37;;;;;;;6.90;5.03;;;6.90;99.90;;;;;;5110691;28;20058;-50
2022/01/17 12:13:16;;;;;;;7.03;4.95;;;7.00;99.90;;;;;;5094541;28;20053;-49
2022/01/17 12:15:54;;;;;;;8.30;5.18;;;7.20;99.90;;;;;;5112167;28;20025;-47
2022/01/17 12:18:31;;;;;;;6.22;5.10;;;7.40;99.90;;;;;;5112307;28;20522;-47
2022/01/17 12:21:15;;;;;;;6.50;4.75;;;7.40;99.90;;;;;;5111952;28;20122;-47
2022/01/17 12:23:40;;;;;;;6.22;4.97;;;7.30;99.90;;;;;;5111773;28;20548;-49
2022/01/17 12:26:31;;;;;;;8.60;5.80;;;7.20;99.90;;;;;;5112071;28;20031;-50
2022/01/17 12:28:59;;;;;;;7.78;5.13;;;7.20;99.90;;;;;;5112299;28;20407;-47
2022/01/17 12:31:51;;;;;;;9.05;5.22;;;7.10;99.90;;;;;;5093265;28;20526;-47
2022/01/17 12:34:23;;;;;;;8.23;6.50;;;7.10;99.90;;;;;;5091071;28;20036;-46
2022/01/17 12:36:50;;;;;;;8.02;5.80;;;7.10;99.90;;;;;;5111692;28;20016;-48
2022/01/17 12:39:20;;;;;;;6.80;5.18;;;7.10;99.90;;;;;;5111462;28;20116;-43
2022/01/17 12:41:48;;;;;;;9.05;5.55;;;7.00;99.90;;;;;;5111117;28;20024;-49
2022/01/17 12:44:17;;;;;;;8.52;5.70;;;7.00;99.90;;;;;;5112116;28;20015;-50
2022/01/17 12:46:43;;;;;;;8.60;5.18;;;7.00;99.90;;;;;;5112012;28;20405;-50
2022/01/17 12:49:10;;;;;;;7.65;5.70;;;7.00;99.90;;;;;;5111631;28;20024;-48
2022/01/17 12:51:46;;;;;;;7.35;5.45;;;7.00;99.90;;;;;;5111644;28;20047;-47
2022/01/17 12:54:15;;;;;;;8.55;5.93;;;6.90;99.90;;;;;;5111211;28;20050;-53
2022/01/17 12:56:46;;;;;;;9.50;6.03;;;6.90;99.90;;;;;;5111775;28;20531;-52
2022/01/17 12:59:12;;;;;;;7.95;5.68;;;6.90;99.90;;;;;;5111378;28;20073;-50
2022/01/17 13:01:49;;;;;;;8.90;5.82;;;6.90;99.90;;;;;;5111552;28;20026;-49
2022/01/17 13:04:17;;;;;;;12.15;6.35;;;6.90;99.90;;;;;;5111544;28;20459;-44
2022/01/17 13:06:44;;;;;;;7.53;5.60;;;6.90;99.90;;;;;;5093860;28;20386;-54
2022/01/17 13:09:15;;;;;;;8.40;5.57;;;6.90;99.90;;;;;;5111576;28;20433;-51
2022/01/17 13:11:43;;;;;;;9.75;5.78;;;6.90;99.90;;;;;;5115419;28;20077;-48
2022/01/17 13:14:12;;;;;;;9.38;6.70;;;6.90;99.90;;;;;;5115381;28;20436;-45
2022/01/17 13:16:40;;;;;;;6.63;5.28;;;7.00;99.90;;;;;;5115390;28;20012;-48
2022/01/17 13:19:09;;;;;;;9.05;5.57;;;7.00;99.90;;;;;;5109993;28;20024;-51